sensor_id;sensor_type;location;lat;lon;timestamp;P1;durP1;ratioP1;P2;durP2;ratioP2
4278;SDS011;2153;47.744;10.580;2023-12-20T00:01:10;15.43;;;4.40;;
4278;SDS011;2153;47.744;10.580;2023-12-20T00:03:37;15.43;;;3.83;;
4278;SDS011;2153;47.744;10.580;2023-12-20T00:06:03;13.30;;;3.60;;
4278;SDS011;2153;47.744;10.580;2023-12-20T00:08:30;15.17;;;4.20;;
4278;SDS011;2153;47.744;10.580;2023-12-20T00:10:58;13.50;;;3.23;;
4278;SDS011;2153;47.744;10.580;2023-12-20T00:13:25;12.10;;;3.10;;
4278;SDS011;2153;47.744;10.580;2023-12-20T00:15:51;13.90;;;3.33;;
4278;SDS011;2153;47.744;10.580;2023-12-20T00:18:18;15.10;;;4.03;;
4278;SDS011;2153;47.744;10.580;2023-12-20T00:20:45;14.47;;;3.37;;
4278;SDS011;2153;47.744;10.580;2023-12-20T00:23:11;13.63;;;3.03;;
4278;SDS011;2153;47.744;10.580;2023-12-20T00:25:38;11.73;;;2.70;;
4278;SDS011;2153;47.744;10.580;2023-12-20T00:28:06;12.70;;;2.80;;
4278;SDS011;2153;47.744;10.580;2023-12-20T00:30:33;13.27;;;3.33;;
4278;SDS011;2153;47.744;10.580;2023-12-20T00:32:59;13.13;;;2.73;;
4278;SDS011;2153;47.744;10.580;2023-12-20T00:35:26;12.97;;;2.83;;
4278;SDS011;2153;47.744;10.580;2023-12-20T00:37:53;12.27;;;2.80;;
4278;SDS011;2153;47.744;10.580;2023-12-20T00:40:20;14.80;;;3.13;;
4278;SDS011;2153;47.744;10.580;2023-12-20T00:42:47;11.87;;;2.30;;
4278;SDS011;2153;47.744;10.580;2023-12-20T00:45:15;14.37;;;2.97;;
4278;SDS011;2153;47.744;10.580;2023-12-20T00:47:42;12.73;;;3.07;;
4278;SDS011;2153;47.744;10.580;2023-12-20T00:50:08;12.97;;;2.80;;
4278;SDS011;2153;47.744;10.580;2023-12-20T00:52:35;12.20;;;2.60;;
4278;SDS011;2153;47.744;10.580;2023-12-20T00:55:02;13.63;;;2.80;;
4278;SDS011;2153;47.744;10.580;2023-12-20T00:57:29;12.73;;;2.63;;
4278;SDS011;2153;47.744;10.580;2023-12-20T00:59:57;15.03;;;3.47;;
4278;SDS011;2153;47.744;10.580;2023-12-20T01:02:25;15.13;;;2.90;;
4278;SDS011;2153;47.744;10.580;2023-12-20T01:04:52;13.27;;;2.80;;
4278;SDS011;2153;47.744;10.580;2023-12-20T01:07:19;11.67;;;2.50;;
4278;SDS011;2153;47.744;10.580;2023-12-20T01:09:46;15.00;;;2.70;;
4278;SDS011;2153;47.744;10.580;2023-12-20T01:12:12;12.43;;;2.53;;
4278;SDS011;2153;47.744;10.580;2023-12-20T01:14:39;15.80;;;2.77;;
4278;SDS011;2153;47.744;10.580;2023-12-20T01:17:06;17.50;;;2.10;;
4278;SDS011;2153;47.744;10.580;2023-12-20T01:19:34;12.33;;;2.40;;
4278;SDS011;2153;47.744;10.580;2023-12-20T01:22:01;13.27;;;3.03;;
4278;SDS011;2153;47.744;10.580;2023-12-20T01:24:27;11.90;;;2.70;;
4278;SDS011;2153;47.744;10.580;2023-12-20T01:26:54;13.17;;;2.47;;
4278;SDS011;2153;47.744;10.580;2023-12-20T01:29:21;11.30;;;2.07;;
4278;SDS011;2153;47.744;10.580;2023-12-20T01:31:47;11.33;;;2.33;;
4278;SDS011;2153;47.744;10.580;2023-12-20T01:34:14;13.27;;;2.40;;
4278;SDS011;2153;47.744;10.580;2023-12-20T01:36:42;12.57;;;2.73;;
4278;SDS011;2153;47.744;10.580;2023-12-20T01:39:09;13.00;;;2.60;;
4278;SDS011;2153;47.744;10.580;2023-12-20T01:41:36;12.00;;;2.20;;
4278;SDS011;2153;47.744;10.580;2023-12-20T01:44:02;11.30;;;2.13;;
4278;SDS011;2153;47.744;10.580;2023-12-20T01:46:29;11.30;;;1.90;;
4278;SDS011;2153;47.744;10.580;2023-12-20T01:48:56;11.37;;;2.13;;
4278;SDS011;2153;47.744;10.580;2023-12-20T01:51:23;11.50;;;2.20;;
4278;SDS011;2153;47.744;10.580;2023-12-20T01:53:53;11.00;;;2.13;;
4278;SDS011;2153;47.744;10.580;2023-12-20T01:56:21;11.00;;;1.70;;
4278;SDS011;2153;47.744;10.580;2023-12-20T01:58:48;12.73;;;2.63;;
4278;SDS011;2153;47.744;10.580;2023-12-20T02:01:14;11.30;;;2.30;;
4278;SDS011;2153;47.744;10.580;2023-12-20T02:03:42;11.57;;;1.93;;
4278;SDS011;2153;47.744;10.580;2023-12-20T02:06:08;16.93;;;2.90;;
4278;SDS011;2153;47.744;10.580;2023-12-20T02:08:35;10.30;;;1.80;;
4278;SDS011;2153;47.744;10.580;2023-12-20T02:11:04;11.30;;;2.40;;
4278;SDS011;2153;47.744;10.580;2023-12-20T02:13:30;11.40;;;2.13;;
4278;SDS011;2153;47.744;10.580;2023-12-20T02:15:57;10.90;;;2.30;;
4278;SDS011;2153;47.744;10.580;2023-12-20T02:18:24;13.33;;;2.10;;
4278;SDS011;2153;47.744;10.580;2023-12-20T02:20:51;11.90;;;2.60;;
4278;SDS011;2153;47.744;10.580;2023-12-20T02:23:19;11.70;;;2.37;;
4278;SDS011;2153;47.744;10.580;2023-12-20T02:25:46;11.30;;;2.47;;
4278;SDS011;2153;47.744;10.580;2023-12-20T02:28:13;12.40;;;2.50;;
4278;SDS011;2153;47.744;10.580;2023-12-20T02:30:40;11.33;;;2.30;;
4278;SDS011;2153;47.744;10.580;2023-12-20T02:33:07;12.10;;;2.37;;
4278;SDS011;2153;47.744;10.580;2023-12-20T02:35:37;12.20;;;2.40;;
4278;SDS011;2153;47.744;10.580;2023-12-20T02:38:04;11.97;;;2.50;;
4278;SDS011;2153;47.744;10.580;2023-12-20T02:40:32;11.83;;;2.20;;
4278;SDS011;2153;47.744;10.580;2023-12-20T02:42:58;12.10;;;2.60;;
4278;SDS011;2153;47.744;10.580;2023-12-20T02:45:25;12.17;;;2.40;;
4278;SDS011;2153;47.744;10.580;2023-12-20T02:47:53;12.00;;;2.53;;
4278;SDS011;2153;47.744;10.580;2023-12-20T02:50:20;13.20;;;2.83;;
4278;SDS011;2153;47.744;10.580;2023-12-20T02:52:46;12.10;;;2.50;;
4278;SDS011;2153;47.744;10.580;2023-12-20T02:55:13;11.50;;;2.27;;
4278;SDS011;2153;47.744;10.580;2023-12-20T02:57:41;11.00;;;2.50;;
4278;SDS011;2153;47.744;10.580;2023-12-20T03:00:08;11.77;;;2.50;;
4278;SDS011;2153;47.744;10.580;2023-12-20T03:02:35;11.90;;;2.43;;
4278;SDS011;2153;47.744;10.580;2023-12-20T03:05:02;12.13;;;2.30;;
4278;SDS011;2153;47.744;10.580;2023-12-20T03:07:29;12.70;;;2.30;;
4278;SDS011;2153;47.744;10.580;2023-12-20T03:09:56;12.20;;;2.87;;
4278;SDS011;2153;47.744;10.580;2023-12-20T03:12:23;10.93;;;2.10;;
4278;SDS011;2153;47.744;10.580;2023-12-20T03:14:51;13.17;;;3.13;;
4278;SDS011;2153;47.744;10.580;2023-12-20T03:17:17;12.37;;;2.50;;
4278;SDS011;2153;47.744;10.580;2023-12-20T03:19:45;12.30;;;2.80;;
4278;SDS011;2153;47.744;10.580;2023-12-20T03:22:12;15.40;;;2.87;;
4278;SDS011;2153;47.744;10.580;2023-12-20T03:24:39;12.63;;;2.40;;
4278;SDS011;2153;47.744;10.580;2023-12-20T03:27:05;11.90;;;2.73;;
4278;SDS011;2153;47.744;10.580;2023-12-20T03:29:32;12.27;;;2.30;;
4278;SDS011;2153;47.744;10.580;2023-12-20T03:32:00;11.33;;;2.07;;
4278;SDS011;2153;47.744;10.580;2023-12-20T03:34:27;11.50;;;2.47;;
4278;SDS011;2153;47.744;10.580;2023-12-20T03:36:54;11.67;;;2.03;;
4278;SDS011;2153;47.744;10.580;2023-12-20T03:39:20;10.80;;;2.37;;
4278;SDS011;2153;47.744;10.580;2023-12-20T03:41:47;10.83;;;2.00;;
4278;SDS011;2153;47.744;10.580;2023-12-20T03:44:14;10.60;;;2.00;;
4278;SDS011;2153;47.744;10.580;2023-12-20T03:46:40;10.80;;;2.20;;
4278;SDS011;2153;47.744;10.580;2023-12-20T03:49:08;11.17;;;2.03;;
4278;SDS011;2153;47.744;10.580;2023-12-20T03:51:35;12.03;;;2.50;;
4278;SDS011;2153;47.744;10.580;2023-12-20T03:54:02;10.67;;;2.07;;
4278;SDS011;2153;47.744;10.580;2023-12-20T03:56:29;11.80;;;2.40;;
4278;SDS011;2153;47.744;10.580;2023-12-20T03:58:55;12.17;;;2.60;;
4278;SDS011;2153;47.744;10.580;2023-12-20T04:01:22;11.97;;;2.50;;
4278;SDS011;2153;47.744;10.580;2023-12-20T04:03:49;13.37;;;3.07;;
4278;SDS011;2153;47.744;10.580;2023-12-20T04:06:17;13.17;;;2.93;;
4278;SDS011;2153;47.744;10.580;2023-12-20T04:08:44;12.50;;;2.47;;
4278;SDS011;2153;47.744;10.580;2023-12-20T04:11:11;12.83;;;2.63;;
4278;SDS011;2153;47.744;10.580;2023-12-20T04:13:38;11.70;;;2.70;;
4278;SDS011;2153;47.744;10.580;2023-12-20T04:16:04;10.73;;;2.10;;
4278;SDS011;2153;47.744;10.580;2023-12-20T04:18:31;14.67;;;3.43;;
4278;SDS011;2153;47.744;10.580;2023-12-20T04:20:58;13.07;;;2.70;;
4278;SDS011;2153;47.744;10.580;2023-12-20T04:23:26;11.90;;;2.67;;
4278;SDS011;2153;47.744;10.580;2023-12-20T04:25:53;11.30;;;2.40;;
4278;SDS011;2153;47.744;10.580;2023-12-20T04:28:20;12.77;;;3.20;;
4278;SDS011;2153;47.744;10.580;2023-12-20T04:30:47;12.60;;;3.30;;
4278;SDS011;2153;47.744;10.580;2023-12-20T04:33:13;12.00;;;3.00;;
4278;SDS011;2153;47.744;10.580;2023-12-20T04:35:40;15.67;;;3.37;;
4278;SDS011;2153;47.744;10.580;2023-12-20T04:38:08;15.83;;;3.27;;
4278;SDS011;2153;47.744;10.580;2023-12-20T04:40:36;12.40;;;3.00;;
4278;SDS011;2153;47.744;10.580;2023-12-20T04:43:03;12.23;;;3.00;;
4278;SDS011;2153;47.744;10.580;2023-12-20T04:45:29;11.70;;;2.90;;
4278;SDS011;2153;47.744;10.580;2023-12-20T04:47:56;12.30;;;2.60;;
4278;SDS011;2153;47.744;10.580;2023-12-20T04:50:23;19.07;;;5.73;;
4278;SDS011;2153;47.744;10.580;2023-12-20T04:52:49;13.93;;;4.13;;
4278;SDS011;2153;47.744;10.580;2023-12-20T04:55:17;17.93;;;4.87;;
4278;SDS011;2153;47.744;10.580;2023-12-20T04:57:45;12.77;;;3.40;;
4278;SDS011;2153;47.744;10.580;2023-12-20T05:00:12;11.97;;;2.80;;
4278;SDS011;2153;47.744;10.580;2023-12-20T05:02:40;13.23;;;2.83;;
4278;SDS011;2153;47.744;10.580;2023-12-20T05:05:07;13.03;;;3.27;;
4278;SDS011;2153;47.744;10.580;2023-12-20T05:07:34;13.70;;;3.20;;
4278;SDS011;2153;47.744;10.580;2023-12-20T05:10:01;11.77;;;3.20;;
4278;SDS011;2153;47.744;10.580;2023-12-20T05:12:29;12.83;;;2.93;;
4278;SDS011;2153;47.744;10.580;2023-12-20T05:14:57;12.40;;;3.30;;
4278;SDS011;2153;47.744;10.580;2023-12-20T05:17:24;13.27;;;3.53;;
4278;SDS011;2153;47.744;10.580;2023-12-20T05:19:51;13.17;;;3.70;;
4278;SDS011;2153;47.744;10.580;2023-12-20T05:22:17;14.47;;;3.53;;
4278;SDS011;2153;47.744;10.580;2023-12-20T05:24:45;12.67;;;3.53;;
4278;SDS011;2153;47.744;10.580;2023-12-20T05:27:12;11.97;;;3.60;;
4278;SDS011;2153;47.744;10.580;2023-12-20T05:29:38;13.30;;;3.50;;
4278;SDS011;2153;47.744;10.580;2023-12-20T05:32:07;13.77;;;4.20;;
4278;SDS011;2153;47.744;10.580;2023-12-20T05:34:34;13.70;;;3.50;;
4278;SDS011;2153;47.744;10.580;2023-12-20T05:37:01;12.73;;;3.60;;
4278;SDS011;2153;47.744;10.580;2023-12-20T05:39:28;13.43;;;3.33;;
4278;SDS011;2153;47.744;10.580;2023-12-20T05:41:56;14.03;;;3.87;;
4278;SDS011;2153;47.744;10.580;2023-12-20T05:44:22;12.47;;;3.60;;
4278;SDS011;2153;47.744;10.580;2023-12-20T05:46:49;13.20;;;4.17;;
4278;SDS011;2153;47.744;10.580;2023-12-20T05:49:17;12.53;;;3.37;;
4278;SDS011;2153;47.744;10.580;2023-12-20T05:51:44;13.23;;;4.00;;
4278;SDS011;2153;47.744;10.580;2023-12-20T05:54:10;13.93;;;4.10;;
4278;SDS011;2153;47.744;10.580;2023-12-20T05:56:37;13.30;;;4.00;;
4278;SDS011;2153;47.744;10.580;2023-12-20T05:59:04;16.40;;;4.30;;
4278;SDS011;2153;47.744;10.580;2023-12-20T06:01:30;11.63;;;3.17;;
4278;SDS011;2153;47.744;10.580;2023-12-20T06:03:57;12.40;;;3.50;;
4278;SDS011;2153;47.744;10.580;2023-12-20T06:06:25;12.60;;;3.20;;
4278;SDS011;2153;47.744;10.580;2023-12-20T06:08:52;11.63;;;2.70;;
4278;SDS011;2153;47.744;10.580;2023-12-20T06:11:18;12.43;;;3.50;;
4278;SDS011;2153;47.744;10.580;2023-12-20T06:13:45;12.10;;;3.40;;
4278;SDS011;2153;47.744;10.580;2023-12-20T06:16:12;11.67;;;2.87;;
4278;SDS011;2153;47.744;10.580;2023-12-20T06:18:38;13.33;;;3.40;;
4278;SDS011;2153;47.744;10.580;2023-12-20T06:21:06;11.50;;;2.70;;
4278;SDS011;2153;47.744;10.580;2023-12-20T06:23:34;12.63;;;2.70;;
4278;SDS011;2153;47.744;10.580;2023-12-20T06:26:01;10.83;;;2.40;;
4278;SDS011;2153;47.744;10.580;2023-12-20T06:28:28;11.43;;;2.53;;
4278;SDS011;2153;47.744;10.580;2023-12-20T06:30:54;11.50;;;2.97;;
4278;SDS011;2153;47.744;10.580;2023-12-20T06:33:22;12.23;;;2.53;;
4278;SDS011;2153;47.744;10.580;2023-12-20T06:35:49;12.50;;;3.60;;
4278;SDS011;2153;47.744;10.580;2023-12-20T06:38:18;13.17;;;3.67;;
4278;SDS011;2153;47.744;10.580;2023-12-20T06:40:46;11.23;;;2.53;;
4278;SDS011;2153;47.744;10.580;2023-12-20T06:43:13;11.87;;;2.80;;
4278;SDS011;2153;47.744;10.580;2023-12-20T06:45:40;12.20;;;3.00;;
4278;SDS011;2153;47.744;10.580;2023-12-20T06:48:06;12.47;;;2.83;;
4278;SDS011;2153;47.744;10.580;2023-12-20T06:50:33;11.60;;;2.60;;
4278;SDS011;2153;47.744;10.580;2023-12-20T06:53:04;11.10;;;2.13;;
4278;SDS011;2153;47.744;10.580;2023-12-20T06:55:32;10.67;;;2.23;;
4278;SDS011;2153;47.744;10.580;2023-12-20T06:58:00;11.93;;;2.27;;
4278;SDS011;2153;47.744;10.580;2023-12-20T07:00:28;10.70;;;2.20;;
4278;SDS011;2153;47.744;10.580;2023-12-20T07:02:54;11.40;;;2.80;;
4278;SDS011;2153;47.744;10.580;2023-12-20T07:05:21;11.33;;;2.30;;
4278;SDS011;2153;47.744;10.580;2023-12-20T07:07:48;14.97;;;3.10;;
4278;SDS011;2153;47.744;10.580;2023-12-20T07:10:14;11.13;;;2.50;;
4278;SDS011;2153;47.744;10.580;2023-12-20T07:12:41;10.27;;;1.67;;
4278;SDS011;2153;47.744;10.580;2023-12-20T07:15:10;10.73;;;2.10;;
4278;SDS011;2153;47.744;10.580;2023-12-20T07:17:37;11.47;;;2.33;;
4278;SDS011;2153;47.744;10.580;2023-12-20T07:20:04;11.13;;;2.50;;
4278;SDS011;2153;47.744;10.580;2023-12-20T07:22:34;10.80;;;2.17;;
4278;SDS011;2153;47.744;10.580;2023-12-20T07:25:01;11.50;;;2.50;;
4278;SDS011;2153;47.744;10.580;2023-12-20T07:27:28;13.20;;;2.13;;
4278;SDS011;2153;47.744;10.580;2023-12-20T07:29:55;11.50;;;2.07;;
4278;SDS011;2153;47.744;10.580;2023-12-20T07:32:23;9.50;;;1.37;;
4278;SDS011;2153;47.744;10.580;2023-12-20T07:34:50;9.50;;;1.30;;
4278;SDS011;2153;47.744;10.580;2023-12-20T07:37:16;11.17;;;2.00;;
4278;SDS011;2153;47.744;10.580;2023-12-20T07:39:43;11.57;;;3.13;;
4278;SDS011;2153;47.744;10.580;2023-12-20T07:42:10;11.00;;;2.00;;
4278;SDS011;2153;47.744;10.580;2023-12-20T07:44:36;9.80;;;1.67;;
4278;SDS011;2153;47.744;10.580;2023-12-20T07:47:03;9.97;;;1.50;;
4278;SDS011;2153;47.744;10.580;2023-12-20T07:49:32;10.70;;;2.20;;
4278;SDS011;2153;47.744;10.580;2023-12-20T07:51:58;12.53;;;2.27;;
4278;SDS011;2153;47.744;10.580;2023-12-20T07:54:25;10.03;;;1.80;;
4278;SDS011;2153;47.744;10.580;2023-12-20T07:56:52;10.33;;;1.70;;
4278;SDS011;2153;47.744;10.580;2023-12-20T07:59:19;9.60;;;1.57;;
4278;SDS011;2153;47.744;10.580;2023-12-20T08:01:45;9.40;;;1.27;;
4278;SDS011;2153;47.744;10.580;2023-12-20T08:04:12;9.20;;;1.00;;
4278;SDS011;2153;47.744;10.580;2023-12-20T08:06:40;8.90;;;0.80;;
4278;SDS011;2153;47.744;10.580;2023-12-20T08:09:06;9.30;;;1.10;;
4278;SDS011;2153;47.744;10.580;2023-12-20T08:11:33;9.10;;;1.10;;
4278;SDS011;2153;47.744;10.580;2023-12-20T08:14:00;9.47;;;1.13;;
4278;SDS011;2153;47.744;10.580;2023-12-20T08:16:26;8.93;;;0.93;;
4278;SDS011;2153;47.744;10.580;2023-12-20T08:18:53;9.63;;;1.20;;
4278;SDS011;2153;47.744;10.580;2023-12-20T08:21:20;8.60;;;0.73;;
4278;SDS011;2153;47.744;10.580;2023-12-20T08:23:49;9.17;;;1.00;;
4278;SDS011;2153;47.744;10.580;2023-12-20T08:26:18;8.77;;;0.80;;
4278;SDS011;2153;47.744;10.580;2023-12-20T08:28:46;8.90;;;0.87;;
4278;SDS011;2153;47.744;10.580;2023-12-20T08:31:13;8.73;;;0.70;;
4278;SDS011;2153;47.744;10.580;2023-12-20T08:33:40;8.83;;;0.80;;
4278;SDS011;2153;47.744;10.580;2023-12-20T08:36:07;15.60;;;3.40;;
4278;SDS011;2153;47.744;10.580;2023-12-20T08:38:34;10.60;;;1.50;;
4278;SDS011;2153;47.744;10.580;2023-12-20T08:41:02;9.40;;;1.33;;
4278;SDS011;2153;47.744;10.580;2023-12-20T08:43:30;10.83;;;2.03;;
4278;SDS011;2153;47.744;10.580;2023-12-20T08:45:56;10.17;;;1.50;;
4278;SDS011;2153;47.744;10.580;2023-12-20T08:48:23;9.40;;;1.20;;
4278;SDS011;2153;47.744;10.580;2023-12-20T08:50:50;11.13;;;2.33;;
4278;SDS011;2153;47.744;10.580;2023-12-20T08:53:17;10.40;;;1.90;;
4278;SDS011;2153;47.744;10.580;2023-12-20T08:55:44;9.03;;;1.00;;
4278;SDS011;2153;47.744;10.580;2023-12-20T08:58:12;9.70;;;1.27;;
4278;SDS011;2153;47.744;10.580;2023-12-20T09:00:39;9.50;;;1.20;;
4278;SDS011;2153;47.744;10.580;2023-12-20T09:03:06;9.47;;;1.40;;
4278;SDS011;2153;47.744;10.580;2023-12-20T09:05:33;8.67;;;0.60;;
4278;SDS011;2153;47.744;10.580;2023-12-20T09:07:59;9.33;;;1.07;;
4278;SDS011;2153;47.744;10.580;2023-12-20T09:10:26;9.23;;;1.00;;
4278;SDS011;2153;47.744;10.580;2023-12-20T09:12:53;8.90;;;0.90;;
4278;SDS011;2153;47.744;10.580;2023-12-20T09:15:22;9.00;;;0.90;;
4278;SDS011;2153;47.744;10.580;2023-12-20T09:17:49;9.30;;;0.97;;
4278;SDS011;2153;47.744;10.580;2023-12-20T09:20:16;8.80;;;0.80;;
4278;SDS011;2153;47.744;10.580;2023-12-20T09:22:42;9.00;;;0.80;;
4278;SDS011;2153;47.744;10.580;2023-12-20T09:25:09;9.03;;;0.80;;
4278;SDS011;2153;47.744;10.580;2023-12-20T09:27:37;9.67;;;1.03;;
4278;SDS011;2153;47.744;10.580;2023-12-20T09:30:04;10.33;;;1.70;;
4278;SDS011;2153;47.744;10.580;2023-12-20T09:32:33;9.23;;;1.00;;
4278;SDS011;2153;47.744;10.580;2023-12-20T09:35:00;8.63;;;0.90;;
4278;SDS011;2153;47.744;10.580;2023-12-20T09:37:28;10.87;;;0.90;;
4278;SDS011;2153;47.744;10.580;2023-12-20T09:39:54;8.87;;;0.73;;
4278;SDS011;2153;47.744;10.580;2023-12-20T09:42:21;9.43;;;1.23;;
4278;SDS011;2153;47.744;10.580;2023-12-20T09:45:03;9.40;;;1.20;;
4278;SDS011;2153;47.744;10.580;2023-12-20T09:47:35;9.20;;;0.90;;
4278;SDS011;2153;47.744;10.580;2023-12-20T09:50:02;9.00;;;0.77;;
4278;SDS011;2153;47.744;10.580;2023-12-20T09:52:29;10.57;;;1.10;;
4278;SDS011;2153;47.744;10.580;2023-12-20T09:54:57;9.50;;;1.03;;
4278;SDS011;2153;47.744;10.580;2023-12-20T09:57:24;10.00;;;0.90;;
4278;SDS011;2153;47.744;10.580;2023-12-20T09:59:51;9.13;;;1.00;;
4278;SDS011;2153;47.744;10.580;2023-12-20T10:02:17;10.43;;;1.30;;
4278;SDS011;2153;47.744;10.580;2023-12-20T10:04:54;9.23;;;1.00;;
4278;SDS011;2153;47.744;10.580;2023-12-20T10:07:21;9.10;;;0.80;;
4278;SDS011;2153;47.744;10.580;2023-12-20T10:09:48;9.60;;;1.10;;
4278;SDS011;2153;47.744;10.580;2023-12-20T10:12:17;9.70;;;1.10;;
4278;SDS011;2153;47.744;10.580;2023-12-20T10:14:43;8.73;;;0.70;;
4278;SDS011;2153;47.744;10.580;2023-12-20T10:17:10;9.13;;;0.87;;
4278;SDS011;2153;47.744;10.580;2023-12-20T10:19:37;8.93;;;0.93;;
4278;SDS011;2153;47.744;10.580;2023-12-20T10:22:05;9.10;;;1.00;;
4278;SDS011;2153;47.744;10.580;2023-12-20T10:24:31;9.70;;;0.90;;
4278;SDS011;2153;47.744;10.580;2023-12-20T10:27:01;8.93;;;1.00;;
4278;SDS011;2153;47.744;10.580;2023-12-20T10:29:31;9.90;;;0.83;;
4278;SDS011;2153;47.744;10.580;2023-12-20T10:31:58;9.80;;;1.00;;
4278;SDS011;2153;47.744;10.580;2023-12-20T10:34:25;9.17;;;0.90;;
4278;SDS011;2153;47.744;10.580;2023-12-20T10:36:51;9.73;;;1.43;;
4278;SDS011;2153;47.744;10.580;2023-12-20T10:39:20;9.73;;;1.00;;
4278;SDS011;2153;47.744;10.580;2023-12-20T10:41:47;9.10;;;0.90;;
4278;SDS011;2153;47.744;10.580;2023-12-20T10:44:14;9.50;;;1.10;;
4278;SDS011;2153;47.744;10.580;2023-12-20T10:46:41;9.50;;;1.00;;
4278;SDS011;2153;47.744;10.580;2023-12-20T10:49:14;10.10;;;1.90;;
4278;SDS011;2153;47.744;10.580;2023-12-20T10:51:43;10.43;;;1.20;;
4278;SDS011;2153;47.744;10.580;2023-12-20T10:54:11;10.03;;;1.47;;
4278;SDS011;2153;47.744;10.580;2023-12-20T10:56:40;9.27;;;1.10;;
4278;SDS011;2153;47.744;10.580;2023-12-20T10:59:06;9.73;;;1.50;;
4278;SDS011;2153;47.744;10.580;2023-12-20T11:01:36;9.30;;;1.00;;
4278;SDS011;2153;47.744;10.580;2023-12-20T11:04:06;9.60;;;0.80;;
4278;SDS011;2153;47.744;10.580;2023-12-20T11:06:45;9.07;;;0.70;;
4278;SDS011;2153;47.744;10.580;2023-12-20T11:09:17;10.00;;;1.40;;
4278;SDS011;2153;47.744;10.580;2023-12-20T11:12:01;10.40;;;0.90;;
4278;SDS011;2153;47.744;10.580;2023-12-20T11:14:40;9.40;;;0.90;;
4278;SDS011;2153;47.744;10.580;2023-12-20T11:17:12;9.63;;;1.10;;
4278;SDS011;2153;47.744;10.580;2023-12-20T11:19:43;9.40;;;1.00;;
4278;SDS011;2153;47.744;10.580;2023-12-20T11:22:31;9.30;;;1.03;;
4278;SDS011;2153;47.744;10.580;2023-12-20T11:24:59;8.67;;;0.63;;
4278;SDS011;2153;47.744;10.580;2023-12-20T11:27:31;9.20;;;0.80;;
4278;SDS011;2153;47.744;10.580;2023-12-20T11:29:58;8.87;;;0.70;;
4278;SDS011;2153;47.744;10.580;2023-12-20T11:32:29;8.77;;;0.60;;
4278;SDS011;2153;47.744;10.580;2023-12-20T11:34:55;9.10;;;0.80;;
4278;SDS011;2153;47.744;10.580;2023-12-20T11:37:28;8.93;;;0.80;;
4278;SDS011;2153;47.744;10.580;2023-12-20T11:39:57;9.40;;;0.90;;
4278;SDS011;2153;47.744;10.580;2023-12-20T11:42:29;9.47;;;1.10;;
4278;SDS011;2153;47.744;10.580;2023-12-20T11:45:04;9.30;;;0.87;;
4278;SDS011;2153;47.744;10.580;2023-12-20T11:47:31;9.10;;;1.00;;
4278;SDS011;2153;47.744;10.580;2023-12-20T11:49:58;9.23;;;0.90;;
4278;SDS011;2153;47.744;10.580;2023-12-20T11:52:25;9.10;;;1.10;;
4278;SDS011;2153;47.744;10.580;2023-12-20T11:54:52;8.90;;;0.97;;
4278;SDS011;2153;47.744;10.580;2023-12-20T11:57:18;10.63;;;0.90;;
4278;SDS011;2153;47.744;10.580;2023-12-20T11:59:47;21.63;;;6.13;;
4278;SDS011;2153;47.744;10.580;2023-12-20T12:02:13;10.60;;;1.70;;
4278;SDS011;2153;47.744;10.580;2023-12-20T12:04:41;9.30;;;1.30;;
4278;SDS011;2153;47.744;10.580;2023-12-20T12:07:07;9.83;;;1.37;;
4278;SDS011;2153;47.744;10.580;2023-12-20T12:09:34;9.73;;;1.50;;
4278;SDS011;2153;47.744;10.580;2023-12-20T12:12:01;11.63;;;1.67;;
4278;SDS011;2153;47.744;10.580;2023-12-20T12:14:28;9.93;;;1.50;;
4278;SDS011;2153;47.744;10.580;2023-12-20T12:16:56;11.80;;;3.73;;
4278;SDS011;2153;47.744;10.580;2023-12-20T12:19:23;11.23;;;3.17;;
4278;SDS011;2153;47.744;10.580;2023-12-20T12:21:51;9.90;;;1.90;;
4278;SDS011;2153;47.744;10.580;2023-12-20T12:24:29;11.80;;;3.13;;
4278;SDS011;2153;47.744;10.580;2023-12-20T12:26:57;11.70;;;3.33;;
4278;SDS011;2153;47.744;10.580;2023-12-20T12:29:23;11.70;;;3.10;;
4278;SDS011;2153;47.744;10.580;2023-12-20T12:31:50;11.23;;;2.83;;
4278;SDS011;2153;47.744;10.580;2023-12-20T12:34:18;13.40;;;3.97;;
4278;SDS011;2153;47.744;10.580;2023-12-20T12:36:45;12.60;;;3.73;;
4278;SDS011;2153;47.744;10.580;2023-12-20T12:39:13;12.67;;;3.70;;
4278;SDS011;2153;47.744;10.580;2023-12-20T12:41:40;12.00;;;3.23;;
4278;SDS011;2153;47.744;10.580;2023-12-20T12:44:07;12.77;;;3.33;;
4278;SDS011;2153;47.744;10.580;2023-12-20T12:46:34;12.13;;;3.40;;
4278;SDS011;2153;47.744;10.580;2023-12-20T12:49:01;13.17;;;4.60;;
4278;SDS011;2153;47.744;10.580;2023-12-20T12:51:29;12.90;;;4.13;;
4278;SDS011;2153;47.744;10.580;2023-12-20T12:53:56;12.10;;;2.60;;
4278;SDS011;2153;47.744;10.580;2023-12-20T12:56:23;11.50;;;2.53;;
4278;SDS011;2153;47.744;10.580;2023-12-20T12:58:50;11.87;;;3.20;;
4278;SDS011;2153;47.744;10.580;2023-12-20T13:01:17;11.40;;;2.40;;
4278;SDS011;2153;47.744;10.580;2023-12-20T13:03:43;10.63;;;1.90;;
4278;SDS011;2153;47.744;10.580;2023-12-20T13:06:10;10.70;;;2.20;;
4278;SDS011;2153;47.744;10.580;2023-12-20T13:08:38;10.53;;;2.00;;
4278;SDS011;2153;47.744;10.580;2023-12-20T13:11:06;10.37;;;2.00;;
4278;SDS011;2153;47.744;10.580;2023-12-20T13:13:33;11.43;;;2.60;;
4278;SDS011;2153;47.744;10.580;2023-12-20T13:16:00;10.37;;;2.30;;
4278;SDS011;2153;47.744;10.580;2023-12-20T13:18:26;11.50;;;2.50;;
4278;SDS011;2153;47.744;10.580;2023-12-20T13:20:53;10.83;;;2.23;;
4278;SDS011;2153;47.744;10.580;2023-12-20T13:23:20;10.60;;;1.97;;
4278;SDS011;2153;47.744;10.580;2023-12-20T13:25:48;10.93;;;2.60;;
4278;SDS011;2153;47.744;10.580;2023-12-20T13:28:15;11.13;;;2.60;;
4278;SDS011;2153;47.744;10.580;2023-12-20T13:30:42;10.20;;;1.90;;
4278;SDS011;2153;47.744;10.580;2023-12-20T13:33:09;11.30;;;2.40;;
4278;SDS011;2153;47.744;10.580;2023-12-20T13:35:37;10.60;;;2.30;;
4278;SDS011;2153;47.744;10.580;2023-12-20T13:38:04;10.80;;;2.10;;
4278;SDS011;2153;47.744;10.580;2023-12-20T13:40:32;12.73;;;3.03;;
4278;SDS011;2153;47.744;10.580;2023-12-20T13:43:00;13.30;;;3.77;;
4278;SDS011;2153;47.744;10.580;2023-12-20T13:45:28;11.57;;;3.27;;
4278;SDS011;2153;47.744;10.580;2023-12-20T13:47:54;11.77;;;3.07;;
4278;SDS011;2153;47.744;10.580;2023-12-20T13:50:21;11.00;;;2.80;;
4278;SDS011;2153;47.744;10.580;2023-12-20T13:52:48;11.30;;;2.50;;
4278;SDS011;2153;47.744;10.580;2023-12-20T13:55:14;10.23;;;2.07;;
4278;SDS011;2153;47.744;10.580;2023-12-20T13:57:41;10.90;;;2.30;;
4278;SDS011;2153;47.744;10.580;2023-12-20T14:00:10;10.40;;;1.87;;
4278;SDS011;2153;47.744;10.580;2023-12-20T14:02:39;10.50;;;2.27;;
4278;SDS011;2153;47.744;10.580;2023-12-20T14:05:07;10.30;;;2.03;;
4278;SDS011;2153;47.744;10.580;2023-12-20T14:07:35;11.10;;;2.07;;
4278;SDS011;2153;47.744;10.580;2023-12-20T14:10:01;11.40;;;2.43;;
4278;SDS011;2153;47.744;10.580;2023-12-20T14:12:29;12.27;;;3.30;;
4278;SDS011;2153;47.744;10.580;2023-12-20T14:14:57;11.40;;;3.17;;
4278;SDS011;2153;47.744;10.580;2023-12-20T14:17:25;11.23;;;2.83;;
4278;SDS011;2153;47.744;10.580;2023-12-20T14:19:52;12.50;;;2.97;;
4278;SDS011;2153;47.744;10.580;2023-12-20T14:22:19;12.27;;;3.10;;
4278;SDS011;2153;47.744;10.580;2023-12-20T14:24:46;11.67;;;3.07;;
4278;SDS011;2153;47.744;10.580;2023-12-20T14:27:13;12.30;;;3.07;;
4278;SDS011;2153;47.744;10.580;2023-12-20T14:29:40;11.40;;;3.10;;
4278;SDS011;2153;47.744;10.580;2023-12-20T14:32:07;11.90;;;3.00;;
4278;SDS011;2153;47.744;10.580;2023-12-20T14:34:35;14.30;;;3.90;;
4278;SDS011;2153;47.744;10.580;2023-12-20T14:37:02;11.70;;;3.30;;
4278;SDS011;2153;47.744;10.580;2023-12-20T14:39:29;12.50;;;3.70;;
4278;SDS011;2153;47.744;10.580;2023-12-20T14:41:56;12.27;;;3.43;;
4278;SDS011;2153;47.744;10.580;2023-12-20T14:44:23;11.60;;;2.97;;
4278;SDS011;2153;47.744;10.580;2023-12-20T14:46:50;14.13;;;3.80;;
4278;SDS011;2153;47.744;10.580;2023-12-20T14:49:16;11.60;;;3.00;;
4278;SDS011;2153;47.744;10.580;2023-12-20T14:51:45;11.90;;;2.80;;